sensor_id;sensor_type;location;lat;lon;timestamp;temperature;humidity
36652;DHT22;53334;51.976;20.144;2024-01-10T00:02:29;24.80;33.10
36652;DHT22;53334;51.976;20.144;2024-01-10T00:05:03;24.80;33.00
36652;DHT22;53334;51.976;20.144;2024-01-10T00:07:38;24.80;34.40
36652;DHT22;53334;51.976;20.144;2024-01-10T00:10:12;24.80;34.90
36652;DHT22;53334;51.976;20.144;2024-01-10T00:12:45;24.80;35.00
36652;DHT22;53334;51.976;20.144;2024-01-10T00:15:18;24.80;35.10
36652;DHT22;53334;51.976;20.144;2024-01-10T00:17:51;24.80;35.10
36652;DHT22;53334;51.976;20.144;2024-01-10T00:20:24;24.80;34.90
36652;DHT22;53334;51.976;20.144;2024-01-10T00:22:59;24.80;34.70
36652;DHT22;53334;51.976;20.144;2024-01-10T00:25:32;24.80;34.60
36652;DHT22;53334;51.976;20.144;2024-01-10T00:28:06;24.80;34.60
36652;DHT22;53334;51.976;20.144;2024-01-10T00:30:39;24.80;34.60
36652;DHT22;53334;51.976;20.144;2024-01-10T00:33:12;24.90;34.50
36652;DHT22;53334;51.976;20.144;2024-01-10T00:35:46;24.80;34.40
36652;DHT22;53334;51.976;20.144;2024-01-10T00:38:20;24.80;34.40
36652;DHT22;53334;51.976;20.144;2024-01-10T00:40:53;24.90;34.40
36652;DHT22;53334;51.976;20.144;2024-01-10T00:43:28;24.80;34.30
36652;DHT22;53334;51.976;20.144;2024-01-10T00:46:01;24.80;34.20
36652;DHT22;53334;51.976;20.144;2024-01-10T00:48:34;24.80;34.20
36652;DHT22;53334;51.976;20.144;2024-01-10T00:51:08;24.90;34.20
36652;DHT22;53334;51.976;20.144;2024-01-10T00:53:42;24.90;34.20
36652;DHT22;53334;51.976;20.144;2024-01-10T00:56:16;24.90;34.20
36652;DHT22;53334;51.976;20.144;2024-01-10T00:58:49;24.90;34.20
36652;DHT22;53334;51.976;20.144;2024-01-10T01:01:22;24.90;34.20
36652;DHT22;53334;51.976;20.144;2024-01-10T01:03:56;24.90;34.10
36652;DHT22;53334;51.976;20.144;2024-01-10T01:06:29;24.90;34.10
36652;DHT22;53334;51.976;20.144;2024-01-10T01:09:04;24.90;34.10
36652;DHT22;53334;51.976;20.144;2024-01-10T01:11:38;24.90;34.00
36652;DHT22;53334;51.976;20.144;2024-01-10T01:14:11;24.90;34.00
36652;DHT22;53334;51.976;20.144;2024-01-10T01:16:45;24.90;34.00
36652;DHT22;53334;51.976;20.144;2024-01-10T01:19:18;24.90;34.00
36652;DHT22;53334;51.976;20.144;2024-01-10T01:21:51;24.90;34.00
36652;DHT22;53334;51.976;20.144;2024-01-10T01:24:26;24.90;34.00
36652;DHT22;53334;51.976;20.144;2024-01-10T01:26:59;24.90;34.00
36652;DHT22;53334;51.976;20.144;2024-01-10T01:29:32;24.90;33.90
36652;DHT22;53334;51.976;20.144;2024-01-10T01:32:06;24.90;33.90
36652;DHT22;53334;51.976;20.144;2024-01-10T01:34:39;24.90;33.80
36652;DHT22;53334;51.976;20.144;2024-01-10T01:37:13;24.90;33.80
36652;DHT22;53334;51.976;20.144;2024-01-10T01:39:47;24.90;33.80
36652;DHT22;53334;51.976;20.144;2024-01-10T01:42:21;24.90;33.80
36652;DHT22;53334;51.976;20.144;2024-01-10T01:44:54;24.90;33.70
36652;DHT22;53334;51.976;20.144;2024-01-10T01:47:28;24.90;33.70
36652;DHT22;53334;51.976;20.144;2024-01-10T01:50:02;24.90;33.70
36652;DHT22;53334;51.976;20.144;2024-01-10T01:52:36;24.90;33.70
36652;DHT22;53334;51.976;20.144;2024-01-10T01:55:11;24.90;33.70
36652;DHT22;53334;51.976;20.144;2024-01-10T01:57:44;24.90;33.60
36652;DHT22;53334;51.976;20.144;2024-01-10T02:00:18;24.90;33.60
36652;DHT22;53334;51.976;20.144;2024-01-10T02:02:52;24.90;33.60
36652;DHT22;53334;51.976;20.144;2024-01-10T02:05:26;24.90;33.60
36652;DHT22;53334;51.976;20.144;2024-01-10T02:07:59;24.90;33.60
36652;DHT22;53334;51.976;20.144;2024-01-10T02:10:34;24.90;33.60
36652;DHT22;53334;51.976;20.144;2024-01-10T02:13:07;24.80;33.50
36652;DHT22;53334;51.976;20.144;2024-01-10T02:15:43;24.80;33.40
36652;DHT22;53334;51.976;20.144;2024-01-10T02:18:16;24.80;33.40
36652;DHT22;53334;51.976;20.144;2024-01-10T02:20:50;24.90;33.40
36652;DHT22;53334;51.976;20.144;2024-01-10T02:23:23;24.90;33.40
36652;DHT22;53334;51.976;20.144;2024-01-10T02:25:58;24.90;33.40
36652;DHT22;53334;51.976;20.144;2024-01-10T02:28:31;24.90;33.40
36652;DHT22;53334;51.976;20.144;2024-01-10T02:31:05;24.90;33.40
36652;DHT22;53334;51.976;20.144;2024-01-10T02:33:39;24.90;33.40
36652;DHT22;53334;51.976;20.144;2024-01-10T02:36:12;24.90;33.40
36652;DHT22;53334;51.976;20.144;2024-01-10T02:38:45;24.90;33.40
36652;DHT22;53334;51.976;20.144;2024-01-10T02:41:20;24.90;33.40
36652;DHT22;53334;51.976;20.144;2024-01-10T02:43:53;24.80;33.70
36652;DHT22;53334;51.976;20.144;2024-01-10T02:46:30;24.80;33.80
36652;DHT22;53334;51.976;20.144;2024-01-10T02:49:04;24.80;33.50
36652;DHT22;53334;51.976;20.144;2024-01-10T02:51:37;24.80;33.50
36652;DHT22;53334;51.976;20.144;2024-01-10T02:54:10;24.80;33.40
36652;DHT22;53334;51.976;20.144;2024-01-10T02:56:45;24.90;33.50
36652;DHT22;53334;51.976;20.144;2024-01-10T02:59:18;24.80;33.30
36652;DHT22;53334;51.976;20.144;2024-01-10T03:01:51;24.80;33.40
36652;DHT22;53334;51.976;20.144;2024-01-10T03:04:24;24.80;33.30
36652;DHT22;53334;51.976;20.144;2024-01-10T03:06:58;24.80;33.20
36652;DHT22;53334;51.976;20.144;2024-01-10T03:09:31;24.90;33.20
36652;DHT22;53334;51.976;20.144;2024-01-10T03:12:06;24.90;33.00
36652;DHT22;53334;51.976;20.144;2024-01-10T03:14:39;24.90;33.00
36652;DHT22;53334;51.976;20.144;2024-01-10T03:17:12;24.90;33.00
36652;DHT22;53334;51.976;20.144;2024-01-10T03:19:46;24.90;33.00
36652;DHT22;53334;51.976;20.144;2024-01-10T03:22:19;24.90;33.00
36652;DHT22;53334;51.976;20.144;2024-01-10T03:24:52;24.90;33.10
36652;DHT22;53334;51.976;20.144;2024-01-10T03:27:27;24.90;33.20
36652;DHT22;53334;51.976;20.144;2024-01-10T03:30:00;24.80;33.20
36652;DHT22;53334;51.976;20.144;2024-01-10T03:32:33;24.90;33.20
36652;DHT22;53334;51.976;20.144;2024-01-10T03:35:08;24.90;33.10
36652;DHT22;53334;51.976;20.144;2024-01-10T03:37:41;24.90;33.20
36652;DHT22;53334;51.976;20.144;2024-01-10T03:40:14;24.90;33.00
36652;DHT22;53334;51.976;20.144;2024-01-10T03:42:49;24.80;33.00
36652;DHT22;53334;51.976;20.144;2024-01-10T03:45:22;24.90;33.00
36652;DHT22;53334;51.976;20.144;2024-01-10T03:47:56;24.90;33.00
36652;DHT22;53334;51.976;20.144;2024-01-10T03:50:29;24.90;33.00
36652;DHT22;53334;51.976;20.144;2024-01-10T03:53:02;24.80;32.90
36652;DHT22;53334;51.976;20.144;2024-01-10T03:55:35;24.90;33.00
36652;DHT22;53334;51.976;20.144;2024-01-10T03:58:10;24.90;32.90
36652;DHT22;53334;51.976;20.144;2024-01-10T04:00:43;24.90;32.80
36652;DHT22;53334;51.976;20.144;2024-01-10T04:03:17;24.90;32.80
36652;DHT22;53334;51.976;20.144;2024-01-10T04:05:50;24.90;32.80
36652;DHT22;53334;51.976;20.144;2024-01-10T04:08:23;24.90;33.00
36652;DHT22;53334;51.976;20.144;2024-01-10T04:10:56;24.90;33.00
36652;DHT22;53334;51.976;20.144;2024-01-10T04:13:31;24.90;33.00
36652;DHT22;53334;51.976;20.144;2024-01-10T04:16:05;24.90;33.00
36652;DHT22;53334;51.976;20.144;2024-01-10T04:18:38;24.90;33.00
36652;DHT22;53334;51.976;20.144;2024-01-10T04:21:11;24.90;33.00
36652;DHT22;53334;51.976;20.144;2024-01-10T04:23:45;24.90;33.00
36652;DHT22;53334;51.976;20.144;2024-01-10T04:26:18;24.80;33.00
36652;DHT22;53334;51.976;20.144;2024-01-10T04:28:53;24.80;33.00
36652;DHT22;53334;51.976;20.144;2024-01-10T04:31:26;24.90;33.00
36652;DHT22;53334;51.976;20.144;2024-01-10T04:33:59;24.80;32.90
36652;DHT22;53334;51.976;20.144;2024-01-10T04:36:32;24.80;33.00
36652;DHT22;53334;51.976;20.144;2024-01-10T04:39:05;24.90;32.90
36652;DHT22;53334;51.976;20.144;2024-01-10T04:41:38;24.80;32.80
36652;DHT22;53334;51.976;20.144;2024-01-10T04:44:13;24.80;32.70
36652;DHT22;53334;51.976;20.144;2024-01-10T04:46:47;24.80;33.40
36652;DHT22;53334;51.976;20.144;2024-01-10T04:49:20;24.90;32.90
36652;DHT22;53334;51.976;20.144;2024-01-10T04:51:53;24.80;32.90
36652;DHT22;53334;51.976;20.144;2024-01-10T04:54:26;24.80;32.80
36652;DHT22;53334;51.976;20.144;2024-01-10T04:57:00;24.80;32.80
36652;DHT22;53334;51.976;20.144;2024-01-10T04:59:34;24.80;32.80
36652;DHT22;53334;51.976;20.144;2024-01-10T05:02:08;24.80;32.80
36652;DHT22;53334;51.976;20.144;2024-01-10T05:04:41;24.80;32.90
36652;DHT22;53334;51.976;20.144;2024-01-10T05:07:14;24.80;32.80
36652;DHT22;53334;51.976;20.144;2024-01-10T05:09:47;24.80;32.90
36652;DHT22;53334;51.976;20.144;2024-01-10T05:12:21;24.80;32.80
36652;DHT22;53334;51.976;20.144;2024-01-10T05:14:55;24.80;32.90
36652;DHT22;53334;51.976;20.144;2024-01-10T05:17:28;24.80;32.50
36652;DHT22;53334;51.976;20.144;2024-01-10T05:20:02;24.80;32.40
36652;DHT22;53334;51.976;20.144;2024-01-10T05:22:35;24.80;32.30
36652;DHT22;53334;51.976;20.144;2024-01-10T05:25:09;24.80;32.80
36652;DHT22;53334;51.976;20.144;2024-01-10T05:27:43;24.80;32.40
36652;DHT22;53334;51.976;20.144;2024-01-10T05:30:17;24.80;32.20
36652;DHT22;53334;51.976;20.144;2024-01-10T05:32:51;24.80;32.70
36652;DHT22;53334;51.976;20.144;2024-01-10T05:35:24;24.80;33.10
36652;DHT22;53334;51.976;20.144;2024-01-10T05:37:57;24.80;33.30
36652;DHT22;53334;51.976;20.144;2024-01-10T05:40:31;24.80;33.40
36652;DHT22;53334;51.976;20.144;2024-01-10T05:43:04;24.90;33.50
36652;DHT22;53334;51.976;20.144;2024-01-10T05:45:40;24.80;33.40
36652;DHT22;53334;51.976;20.144;2024-01-10T05:48:13;24.80;33.40
36652;DHT22;53334;51.976;20.144;2024-01-10T05:50:47;24.90;33.40
36652;DHT22;53334;51.976;20.144;2024-01-10T05:53:24;24.90;33.40
36652;DHT22;53334;51.976;20.144;2024-01-10T05:55:58;24.90;33.30
36652;DHT22;53334;51.976;20.144;2024-01-10T05:58:31;24.90;33.30
36652;DHT22;53334;51.976;20.144;2024-01-10T06:01:05;24.90;33.30
36652;DHT22;53334;51.976;20.144;2024-01-10T06:03:42;24.90;33.20
36652;DHT22;53334;51.976;20.144;2024-01-10T06:06:15;24.90;33.20
36652;DHT22;53334;51.976;20.144;2024-01-10T06:08:49;24.90;33.20
36652;DHT22;53334;51.976;20.144;2024-01-10T06:11:23;24.90;33.20
36652;DHT22;53334;51.976;20.144;2024-01-10T06:13:57;24.90;33.20
36652;DHT22;53334;51.976;20.144;2024-01-10T06:16:32;24.90;33.20
36652;DHT22;53334;51.976;20.144;2024-01-10T06:19:05;24.90;33.10
36652;DHT22;53334;51.976;20.144;2024-01-10T06:21:39;24.90;33.20
36652;DHT22;53334;51.976;20.144;2024-01-10T06:24:12;24.90;33.30
36652;DHT22;53334;51.976;20.144;2024-01-10T06:26:45;24.90;33.20
36652;DHT22;53334;51.976;20.144;2024-01-10T06:29:18;24.90;33.30
36652;DHT22;53334;51.976;20.144;2024-01-10T06:31:53;24.90;33.30
36652;DHT22;53334;51.976;20.144;2024-01-10T06:34:28;24.90;33.40
36652;DHT22;53334;51.976;20.144;2024-01-10T06:37:01;24.90;33.30
36652;DHT22;53334;51.976;20.144;2024-01-10T06:39:35;24.90;33.30
36652;DHT22;53334;51.976;20.144;2024-01-10T06:42:08;24.90;33.20
36652;DHT22;53334;51.976;20.144;2024-01-10T06:44:43;24.90;33.30
36652;DHT22;53334;51.976;20.144;2024-01-10T06:47:19;24.90;33.20
36652;DHT22;53334;51.976;20.144;2024-01-10T06:49:53;24.90;33.00
36652;DHT22;53334;51.976;20.144;2024-01-10T06:52:26;24.90;33.10
36652;DHT22;53334;51.976;20.144;2024-01-10T06:55:00;24.90;33.20
36652;DHT22;53334;51.976;20.144;2024-01-10T06:57:33;24.90;33.20
36652;DHT22;53334;51.976;20.144;2024-01-10T07:00:07;24.90;33.20
36652;DHT22;53334;51.976;20.144;2024-01-10T07:02:44;24.90;33.30
36652;DHT22;53334;51.976;20.144;2024-01-10T07:05:17;24.90;33.10
36652;DHT22;53334;51.976;20.144;2024-01-10T07:07:52;24.90;33.00
36652;DHT22;53334;51.976;20.144;2024-01-10T07:10:25;24.90;33.00
36652;DHT22;53334;51.976;20.144;2024-01-10T07:12:59;24.90;33.00
36652;DHT22;53334;51.976;20.144;2024-01-10T07:15:36;24.90;32.90
36652;DHT22;53334;51.976;20.144;2024-01-10T07:18:11;24.90;32.80
36652;DHT22;53334;51.976;20.144;2024-01-10T07:20:45;24.90;33.00
36652;DHT22;53334;51.976;20.144;2024-01-10T07:23:18;24.90;33.10
36652;DHT22;53334;51.976;20.144;2024-01-10T07:25:51;24.90;33.40
36652;DHT22;53334;51.976;20.144;2024-01-10T07:28:25;24.90;33.40
36652;DHT22;53334;51.976;20.144;2024-01-10T07:30:58;24.90;33.50
36652;DHT22;53334;51.976;20.144;2024-01-10T07:33:35;24.90;33.60
36652;DHT22;53334;51.976;20.144;2024-01-10T07:36:09;25.00;33.70
36652;DHT22;53334;51.976;20.144;2024-01-10T07:38:42;25.00;33.80
36652;DHT22;53334;51.976;20.144;2024-01-10T07:41:15;25.00;33.80
36652;DHT22;53334;51.976;20.144;2024-01-10T07:43:49;25.00;33.80
36652;DHT22;53334;51.976;20.144;2024-01-10T07:46:22;25.00;33.80
36652;DHT22;53334;51.976;20.144;2024-01-10T07:48:57;25.00;33.80
36652;DHT22;53334;51.976;20.144;2024-01-10T07:51:33;25.00;33.60
36652;DHT22;53334;51.976;20.144;2024-01-10T07:54:06;25.00;33.60
36652;DHT22;53334;51.976;20.144;2024-01-10T07:56:39;25.00;33.30
36652;DHT22;53334;51.976;20.144;2024-01-10T07:59:13;25.00;33.40
36652;DHT22;53334;51.976;20.144;2024-01-10T08:01:54;25.00;33.30
36652;DHT22;53334;51.976;20.144;2024-01-10T08:04:29;25.00;33.40
36652;DHT22;53334;51.976;20.144;2024-01-10T08:07:03;25.00;33.40
36652;DHT22;53334;51.976;20.144;2024-01-10T08:09:36;25.00;33.30
36652;DHT22;53334;51.976;20.144;2024-01-10T08:12:10;25.00;33.30
36652;DHT22;53334;51.976;20.144;2024-01-10T08:14:45;25.00;33.30
36652;DHT22;53334;51.976;20.144;2024-01-10T08:17:21;25.00;33.40
36652;DHT22;53334;51.976;20.144;2024-01-10T08:19:56;25.00;33.10
36652;DHT22;53334;51.976;20.144;2024-01-10T08:22:30;25.00;33.10
36652;DHT22;53334;51.976;20.144;2024-01-10T08:25:04;25.00;33.10
36652;DHT22;53334;51.976;20.144;2024-01-10T08:27:37;25.00;33.10
36652;DHT22;53334;51.976;20.144;2024-01-10T08:30:11;25.00;33.90
36652;DHT22;53334;51.976;20.144;2024-01-10T08:32:44;25.00;34.10
36652;DHT22;53334;51.976;20.144;2024-01-10T08:35:19;25.00;34.00
36652;DHT22;53334;51.976;20.144;2024-01-10T08:37:55;25.00;34.10
36652;DHT22;53334;51.976;20.144;2024-01-10T08:40:28;25.00;34.20
36652;DHT22;53334;51.976;20.144;2024-01-10T08:43:04;25.10;34.40
36652;DHT22;53334;51.976;20.144;2024-01-10T08:45:38;25.00;34.40
36652;DHT22;53334;51.976;20.144;2024-01-10T08:48:11;25.10;34.60
36652;DHT22;53334;51.976;20.144;2024-01-10T08:50:47;25.10;34.70
36652;DHT22;53334;51.976;20.144;2024-01-10T08:53:20;25.10;34.90
36652;DHT22;53334;51.976;20.144;2024-01-10T08:55:53;25.10;34.80
36652;DHT22;53334;51.976;20.144;2024-01-10T08:58:27;25.10;34.70
36652;DHT22;53334;51.976;20.144;2024-01-10T09:01:00;25.20;34.80
36652;DHT22;53334;51.976;20.144;2024-01-10T09:03:34;25.20;34.80
36652;DHT22;53334;51.976;20.144;2024-01-10T09:06:08;25.20;35.00
36652;DHT22;53334;51.976;20.144;2024-01-10T09:08:43;25.20;34.90
36652;DHT22;53334;51.976;20.144;2024-01-10T09:11:16;25.20;34.80
36652;DHT22;53334;51.976;20.144;2024-01-10T09:13:49;25.20;34.70
36652;DHT22;53334;51.976;20.144;2024-01-10T09:16:23;25.20;34.70
36652;DHT22;53334;51.976;20.144;2024-01-10T09:18:56;25.30;34.80
36652;DHT22;53334;51.976;20.144;2024-01-10T09:21:31;25.30;35.10
36652;DHT22;53334;51.976;20.144;2024-01-10T09:24:05;25.30;35.30
36652;DHT22;53334;51.976;20.144;2024-01-10T09:26:57;25.30;35.50
36652;DHT22;53334;51.976;20.144;2024-01-10T09:29:30;25.40;35.70
36652;DHT22;53334;51.976;20.144;2024-01-10T09:32:04;25.40;35.60
36652;DHT22;53334;51.976;20.144;2024-01-10T09:34:37;25.40;35.80
36652;DHT22;53334;51.976;20.144;2024-01-10T09:37:12;25.50;35.30
36652;DHT22;53334;51.976;20.144;2024-01-10T09:39:45;25.40;35.20
36652;DHT22;53334;51.976;20.144;2024-01-10T09:42:18;25.40;35.30
36652;DHT22;53334;51.976;20.144;2024-01-10T09:44:52;25.50;35.40
36652;DHT22;53334;51.976;20.144;2024-01-10T09:47:26;25.50;35.30
36652;DHT22;53334;51.976;20.144;2024-01-10T09:50:00;25.50;35.10
36652;DHT22;53334;51.976;20.144;2024-01-10T09:52:41;25.50;34.90
36652;DHT22;53334;51.976;20.144;2024-01-10T09:55:21;25.50;35.40
36652;DHT22;53334;51.976;20.144;2024-01-10T09:57:56;25.50;35.30
36652;DHT22;53334;51.976;20.144;2024-01-10T10:00:30;25.50;34.60
36652;DHT22;53334;51.976;20.144;2024-01-10T10:03:07;25.50;34.70
36652;DHT22;53334;51.976;20.144;2024-01-10T10:05:43;25.50;34.50
36652;DHT22;53334;51.976;20.144;2024-01-10T10:08:17;25.50;35.00
36652;DHT22;53334;51.976;20.144;2024-01-10T10:10:54;25.50;34.30
36652;DHT22;53334;51.976;20.144;2024-01-10T10:13:29;25.50;34.20
36652;DHT22;53334;51.976;20.144;2024-01-10T10:16:03;25.50;34.30
36652;DHT22;53334;51.976;20.144;2024-01-10T10:18:37;25.50;34.70
36652;DHT22;53334;51.976;20.144;2024-01-10T10:21:12;25.50;34.80
36652;DHT22;53334;51.976;20.144;2024-01-10T10:23:59;25.50;34.80
36652;DHT22;53334;51.976;20.144;2024-01-10T10:26:33;25.50;34.80
36652;DHT22;53334;51.976;20.144;2024-01-10T10:29:07;25.50;34.70
36652;DHT22;53334;51.976;20.144;2024-01-10T10:31:40;25.50;34.60
36652;DHT22;53334;51.976;20.144;2024-01-10T10:34:20;25.50;34.50
36652;DHT22;53334;51.976;20.144;2024-01-10T10:36:54;25.50;34.40
36652;DHT22;53334;51.976;20.144;2024-01-10T10:39:29;25.50;34.40
36652;DHT22;53334;51.976;20.144;2024-01-10T10:42:02;25.50;34.40
36652;DHT22;53334;51.976;20.144;2024-01-10T10:44:36;25.50;34.40
36652;DHT22;53334;51.976;20.144;2024-01-10T10:47:16;25.40;34.30
36652;DHT22;53334;51.976;20.144;2024-01-10T10:49:52;25.40;34.30
36652;DHT22;53334;51.976;20.144;2024-01-10T10:52:27;25.40;34.30
36652;DHT22;53334;51.976;20.144;2024-01-10T10:55:02;25.40;34.00
36652;DHT22;53334;51.976;20.144;2024-01-10T10:57:37;25.40;34.10
36652;DHT22;53334;51.976;20.144;2024-01-10T11:00:13;25.40;34.10
36652;DHT22;53334;51.976;20.144;2024-01-10T11:02:48;25.40;34.10
36652;DHT22;53334;51.976;20.144;2024-01-10T11:05:21;25.40;34.10
36652;DHT22;53334;51.976;20.144;2024-01-10T11:07:55;25.40;34.00
36652;DHT22;53334;51.976;20.144;2024-01-10T11:10:32;25.40;33.80
36652;DHT22;53334;51.976;20.144;2024-01-10T11:13:20;25.40;34.00
36652;DHT22;53334;51.976;20.144;2024-01-10T11:19:04;25.40;34.00
36652;DHT22;53334;51.976;20.144;2024-01-10T11:21:50;25.40;34.20
36652;DHT22;53334;51.976;20.144;2024-01-10T11:24:28;25.30;34.00
36652;DHT22;53334;51.976;20.144;2024-01-10T11:27:10;25.40;34.20
36652;DHT22;53334;51.976;20.144;2024-01-10T11:29:46;25.40;34.40
36652;DHT22;53334;51.976;20.144;2024-01-10T11:32:22;25.40;34.50
36652;DHT22;53334;51.976;20.144;2024-01-10T11:34:57;25.40;35.50
36652;DHT22;53334;51.976;20.144;2024-01-10T11:37:39;25.40;36.00
36652;DHT22;53334;51.976;20.144;2024-01-10T11:40:13;25.40;36.30
36652;DHT22;53334;51.976;20.144;2024-01-10T11:42:47;25.40;36.10
36652;DHT22;53334;51.976;20.144;2024-01-10T11:45:36;25.40;36.10
36652;DHT22;53334;51.976;20.144;2024-01-10T11:48:09;25.40;36.00
36652;DHT22;53334;51.976;20.144;2024-01-10T11:50:43;25.40;35.80
36652;DHT22;53334;51.976;20.144;2024-01-10T11:53:38;25.50;35.80
36652;DHT22;53334;51.976;20.144;2024-01-10T11:56:13;25.50;35.80
36652;DHT22;53334;51.976;20.144;2024-01-10T11:59:06;25.50;35.70
36652;DHT22;53334;51.976;20.144;2024-01-10T12:01:41;25.50;35.60
36652;DHT22;53334;51.976;20.144;2024-01-10T12:04:15;25.50;35.50
36652;DHT22;53334;51.976;20.144;2024-01-10T12:07:02;25.50;35.40
36652;DHT22;53334;51.976;20.144;2024-01-10T12:09:37;25.50;35.20
36652;DHT22;53334;51.976;20.144;2024-01-10T12:12:10;25.50;35.90
36652;DHT22;53334;51.976;20.144;2024-01-10T12:14:45;25.50;35.30
36652;DHT22;53334;51.976;20.144;2024-01-10T12:17:18;25.50;35.30
36652;DHT22;53334;51.976;20.144;2024-01-10T12:19:52;25.50;35.30
36652;DHT22;53334;51.976;20.144;2024-01-10T12:22:25;25.50;35.20
36652;DHT22;53334;51.976;20.144;2024-01-10T12:25:04;25.50;35.20
36652;DHT22;53334;51.976;20.144;2024-01-10T12:27:37;25.50;35.20
36652;DHT22;53334;51.976;20.144;2024-01-10T12:30:12;25.50;35.10
36652;DHT22;53334;51.976;20.144;2024-01-10T12:32:49;25.50;34.90
36652;DHT22;53334;51.976;20.144;2024-01-10T12:35:23;25.50;34.90
36652;DHT22;53334;51.976;20.144;2024-01-10T12:37:56;25.50;35.40
36652;DHT22;53334;51.976;20.144;2024-01-10T12:40:32;25.50;34.70
36652;DHT22;53334;51.976;20.144;2024-01-10T12:43:05;25.50;34.50
36652;DHT22;53334;51.976;20.144;2024-01-10T12:45:41;25.50;34.40
36652;DHT22;53334;51.976;20.144;2024-01-10T12:48:17;25.40;34.40
36652;DHT22;53334;51.976;20.144;2024-01-10T12:50:50;25.50;34.40
36652;DHT22;53334;51.976;20.144;2024-01-10T12:53:23;25.50;34.60
36652;DHT22;53334;51.976;20.144;2024-01-10T12:55:57;25.40;34.50
36652;DHT22;53334;51.976;20.144;2024-01-10T12:58:30;25.40;34.40
36652;DHT22;53334;51.976;20.144;2024-01-10T13:01:05;25.40;34.70
36652;DHT22;53334;51.976;20.144;2024-01-10T13:03:39;25.40;34.40
36652;DHT22;53334;51.976;20.144;2024-01-10T13:06:12;25.40;34.90
36652;DHT22;53334;51.976;20.144;2024-01-10T13:08:46;25.40;34.30
36652;DHT22;53334;51.976;20.144;2024-01-10T13:11:19;25.40;34.40
36652;DHT22;53334;51.976;20.144;2024-01-10T13:13:52;25.40;34.40
36652;DHT22;53334;51.976;20.144;2024-01-10T13:16:27;25.40;34.40
36652;DHT22;53334;51.976;20.144;2024-01-10T13:19:00;25.40;34.20
36652;DHT22;53334;51.976;20.144;2024-01-10T13:21:33;25.40;34.20
36652;DHT22;53334;51.976;20.144;2024-01-10T13:24:07;25.40;34.30
36652;DHT22;53334;51.976;20.144;2024-01-10T13:26:40;25.40;34.70
36652;DHT22;53334;51.976;20.144;2024-01-10T13:29:13;25.40;34.40
36652;DHT22;53334;51.976;20.144;2024-01-10T13:31:48;25.40;32.30
36652;DHT22;53334;51.976;20.144;2024-01-10T13:34:22;25.30;26.80
36652;DHT22;53334;51.976;20.144;2024-01-10T13:36:55;25.20;25.20
36652;DHT22;53334;51.976;20.144;2024-01-10T13:39:28;25.10;25.30
36652;DHT22;53334;51.976;20.144;2024-01-10T13:42:02;25.10;26.00
36652;DHT22;53334;51.976;20.144;2024-01-10T13:44:35;25.10;26.50
36652;DHT22;53334;51.976;20.144;2024-01-10T13:47:09;25.00;26.80
36652;DHT22;53334;51.976;20.144;2024-01-10T13:49:43;25.10;26.80
36652;DHT22;53334;51.976;20.144;2024-01-10T13:52:16;25.00;27.20
36652;DHT22;53334;51.976;20.144;2024-01-10T13:54:49;25.00;27.40
36652;DHT22;53334;51.976;20.144;2024-01-10T13:57:23;25.00;27.30
36652;DHT22;53334;51.976;20.144;2024-01-10T13:59:57;25.00;27.90
36652;DHT22;53334;51.976;20.144;2024-01-10T14:02:31;25.00;28.10
36652;DHT22;53334;51.976;20.144;2024-01-10T14:05:05;25.00;28.20
36652;DHT22;53334;51.976;20.144;2024-01-10T14:07:39;25.00;28.30
36652;DHT22;53334;51.976;20.144;2024-01-10T14:10:16;25.00;28.40
36652;DHT22;53334;51.976;20.144;2024-01-10T14:12:49;25.00;28.90
36652;DHT22;53334;51.976;20.144;2024-01-10T14:15:22;25.00;28.90
36652;DHT22;53334;51.976;20.144;2024-01-10T14:17:57;25.00;29.10
36652;DHT22;53334;51.976;20.144;2024-01-10T14:20:30;25.00;29.00
36652;DHT22;53334;51.976;20.144;2024-01-10T14:23:04;25.00;29.30
36652;DHT22;53334;51.976;20.144;2024-01-10T14:25:42;25.00;29.40
36652;DHT22;53334;51.976;20.144;2024-01-10T14:28:21;25.00;29.40
36652;DHT22;53334;51.976;20.144;2024-01-10T14:30:54;25.00;29.40
36652;DHT22;53334;51.976;20.144;2024-01-10T14:33:46;25.00;29.70
36652;DHT22;53334;51.976;20.144;2024-01-10T14:36:19;25.00;29.60
36652;DHT22;53334;51.976;20.144;2024-01-10T14:38:53;25.00;30.00
36652;DHT22;53334;51.976;20.144;2024-01-10T14:41:27;25.00;29.90
36652;DHT22;53334;51.976;20.144;2024-01-10T14:44:00;25.00;30.00
36652;DHT22;53334;51.976;20.144;2024-01-10T14:46:35;25.00;30.10
36652;DHT22;53334;51.976;20.144;2024-01-10T14:49:10;25.00;30.20
36652;DHT22;53334;51.976;20.144;2024-01-10T14:51:43;25.00;30.50
36652;DHT22;53334;51.976;20.144;2024-01-10T14:54:16;25.00;30.60
36652;DHT22;53334;51.976;20.144;2024-01-10T14:56:51;25.00;30.80
36652;DHT22;53334;51.976;20.144;2024-01-10T14:59:24;25.00;30.70
36652;DHT22;53334;51.976;20.144;2024-01-10T15:02:15;25.00;30.80
36652;DHT22;53334;51.976;20.144;2024-01-10T15:04:52;25.00;30.90
36652;DHT22;53334;51.976;20.144;2024-01-10T15:07:25;25.00;31.20
36652;DHT22;53334;51.976;20.144;2024-01-10T15:09:58;25.00;31.50
36652;DHT22;53334;51.976;20.144;2024-01-10T15:12:35;25.00;31.60
36652;DHT22;53334;51.976;20.144;2024-01-10T15:15:09;25.00;31.80
36652;DHT22;53334;51.976;20.144;2024-01-10T15:17:42;25.00;31.60
36652;DHT22;53334;51.976;20.144;2024-01-10T15:20:17;25.00;31.50
36652;DHT22;53334;51.976;20.144;2024-01-10T15:22:50;25.00;31.50
36652;DHT22;53334;51.976;20.144;2024-01-10T15:25:23;25.00;31.30
36652;DHT22;53334;51.976;20.144;2024-01-10T15:27:57;25.00;31.50
36652;DHT22;53334;51.976;20.144;2024-01-10T15:30:30;25.00;32.30
36652;DHT22;53334;51.976;20.144;2024-01-10T15:33:18;25.00;31.70
36652;DHT22;53334;51.976;20.144;2024-01-10T15:35:52;25.00;31.80
36652;DHT22;53334;51.976;20.144;2024-01-10T15:38:27;25.00;31.80
36652;DHT22;53334;51.976;20.144;2024-01-10T15:41:00;25.00;31.90
36652;DHT22;53334;51.976;20.144;2024-01-10T15:43:34;25.00;31.90
36652;DHT22;53334;51.976;20.144;2024-01-10T15:46:08;25.00;31.90
36652;DHT22;53334;51.976;20.144;2024-01-10T15:48:41;25.00;31.80
36652;DHT22;53334;51.976;20.144;2024-01-10T15:51:16;25.00;31.90
36652;DHT22;53334;51.976;20.144;2024-01-10T15:53:49;25.00;31.70
36652;DHT22;53334;51.976;20.144;2024-01-10T15:56:24;25.00;31.60
36652;DHT22;53334;51.976;20.144;2024-01-10T15:58:58;25.10;31.90
36652;DHT22;53334;51.976;20.144;2024-01-10T16:04:21;25.10;32.00
36652;DHT22;53334;51.976;20.144;2024-01-10T16:06:57;25.00;31.80